Time;durP1;ratioP1;P1;durP2;ratioP2;P2;SDS_P1;SDS_P2;PMS_P1;PMS_P2;Temp;Humidity;BMP_temperature;BMP_pressure;BME280_temperature;BME280_humidity;BME280_pressure;Samples;Min_cycle;Max_cycle;Signal;HPM_P1;HPM_P2
2022/06/26 00:00:19;;;;;;;0.00;0.00;;;13.90;63.10;;;;;;5029940;28;20056;-78
2022/06/26 00:02:46;;;;;;;0.00;0.00;;;13.80;63.20;;;;;;5046499;28;20035;-78
2022/06/26 00:05:12;;;;;;;0.00;0.00;;;13.80;63.20;;;;;;5045854;28;20048;-78
2022/06/26 00:07:38;;;;;;;0.00;0.00;;;13.70;63.10;;;;;;5047666;28;20111;-82
2022/06/26 00:10:06;;;;;;;0.00;0.00;;;13.60;63.10;;;;;;5046589;28;20121;-79
2022/06/26 00:12:32;;;;;;;0.00;0.00;;;13.40;63.20;;;;;;5048794;28;20056;-78
2022/06/26 00:14:58;;;;;;;0.00;0.00;;;13.30;63.20;;;;;;5047649;28;20055;-78
2022/06/26 00:17:24;;;;;;;0.00;0.00;;;13.20;63.20;;;;;;5047431;28;20060;-77
2022/06/26 00:19:50;;;;;;;0.00;0.00;;;13.00;63.30;;;;;;5046772;28;20486;-78
2022/06/26 00:22:17;;;;;;;0.00;0.00;;;12.90;63.40;;;;;;5047764;28;20111;-77
2022/06/26 00:24:42;;;;;;;0.00;0.00;;;12.90;63.40;;;;;;5029517;28;20067;-77
2022/06/26 00:27:08;;;;;;;0.00;0.00;;;12.80;63.40;;;;;;5045927;28;20411;-79
2022/06/26 00:29:35;;;;;;;0.00;0.00;;;12.70;63.40;;;;;;5046108;28;20487;-78
2022/06/26 00:32:03;;;;;;;0.00;0.00;;;12.70;63.60;;;;;;5030592;28;20033;-78
2022/06/26 00:34:28;;;;;;;0.00;0.00;;;12.70;63.70;;;;;;5049979;28;20049;-78
2022/06/26 00:36:54;;;;;;;0.00;0.00;;;12.70;63.60;;;;;;5050016;28;20072;-79
2022/06/26 00:39:20;;;;;;;0.00;0.00;;;12.70;64.10;;;;;;5050109;28;20033;-78
2022/06/26 00:41:46;;;;;;;0.00;0.00;;;12.70;63.60;;;;;;5033309;28;20036;-78
2022/06/26 00:44:16;;;;;;;0.00;0.00;;;12.70;63.70;;;;;;5051365;28;20395;-79
2022/06/26 00:46:44;;;;;;;0.00;0.00;;;12.70;63.70;;;;;;5050852;28;20040;-80
2022/06/26 00:49:10;;;;;;;0.00;0.00;;;12.70;63.70;;;;;;5051477;28;20510;-77
2022/06/26 00:51:55;;;;;;;0.00;0.00;;;12.70;63.70;;;;;;5049855;28;20149;-78
2022/06/26 00:54:24;;;;;;;0.00;0.00;;;12.70;63.70;;;;;;5049974;28;20044;-79
2022/06/26 00:56:50;;;;;;;0.00;0.00;;;12.70;63.60;;;;;;5050004;28;20292;-77
2022/06/26 00:59:16;;;;;;;;;;;12.70;63.70;;;;;;5051524;28;20079;-79
2022/06/26 01:01:42;;;;;;;0.00;0.00;;;12.70;63.70;;;;;;5051256;28;19913;-79
2022/06/26 01:04:08;;;;;;;0.00;0.00;;;12.70;63.70;;;;;;5033360;28;20032;-79
2022/06/26 01:06:35;;;;;;;0.00;0.00;;;12.70;63.70;;;;;;5050102;28;20245;-77
2022/06/26 01:09:01;;;;;;;0.00;0.00;;;12.70;63.80;;;;;;5051072;28;20021;-79
2022/06/26 01:11:28;;;;;;;0.00;0.00;;;12.70;63.80;;;;;;5050648;28;20021;-78
2022/06/26 01:13:56;;;;;;;0.00;0.00;;;12.70;63.80;;;;;;5049409;28;20031;-79
2022/06/26 01:16:22;;;;;;;0.00;0.00;;;12.70;63.70;;;;;;5049617;28;20025;-79
2022/06/26 01:18:51;;;;;;;0.00;0.00;;;12.70;63.70;;;;;;5050730;28;20039;-79
2022/06/26 01:21:17;;;;;;;0.00;0.00;;;12.70;63.80;;;;;;5050771;28;20029;-79
2022/06/26 01:23:43;;;;;;;0.00;0.00;;;12.70;63.80;;;;;;5049303;28;20029;-78
2022/06/26 01:26:09;;;;;;;0.00;0.00;;;12.70;63.90;;;;;;5016374;28;20047;-79
2022/06/26 01:28:35;;;;;;;0.00;0.00;;;12.60;63.80;;;;;;5049341;28;20057;-80
2022/06/26 01:31:01;;;;;;;0.00;0.00;;;12.60;63.90;;;;;;5050401;28;20100;-80
2022/06/26 01:33:26;;;;;;;0.00;0.00;;;12.60;63.90;;;;;;5050287;28;20048;-79
2022/06/26 01:35:52;;;;;;;0.00;0.00;;;12.60;63.90;;;;;;5049231;28;20032;-77
2022/06/26 01:38:21;;;;;;;0.00;0.00;;;12.60;63.90;;;;;;5050398;28;20033;-77
2022/06/26 01:40:48;;;;;;;0.00;0.00;;;12.60;63.90;;;;;;5048784;28;20391;-78
2022/06/26 01:43:17;;;;;;;0.00;0.00;;;12.60;63.90;;;;;;5016051;28;20552;-78
2022/06/26 01:45:48;;;;;;;0.00;0.00;;;12.70;64.00;;;;;;5050403;28;20123;-79
2022/06/26 01:48:15;;;;;;;0.00;0.00;;;12.70;64.00;;;;;;5048956;28;20025;-78
2022/06/26 01:50:41;;;;;;;0.00;0.00;;;12.70;64.00;;;;;;5048713;28;20036;-78
2022/06/26 01:53:07;;;;;;;0.00;0.00;;;12.70;64.10;;;;;;5048852;28;20036;-78
2022/06/26 01:55:33;;;;;;;0.00;0.00;;;12.70;64.10;;;;;;5048720;28;20029;-79
2022/06/26 01:58:02;;;;;;;0.00;0.00;;;12.70;64.00;;;;;;5032263;28;20075;-78
2022/06/26 02:00:29;;;;;;;0.00;0.00;;;12.80;64.10;;;;;;5032736;28;20029;-77
2022/06/26 02:02:56;;;;;;;0.00;0.00;;;12.80;64.10;;;;;;5031921;28;20031;-79
2022/06/26 02:05:21;;;;;;;0.00;0.00;;;12.80;64.10;;;;;;5048568;28;20029;-78
2022/06/26 02:07:48;;;;;;;0.00;0.00;;;12.80;64.20;;;;;;5031878;28;20055;-80
2022/06/26 02:15:43;;;;;;;0.00;0.00;;;12.90;64.10;;;;;;5049043;28;20051;-77
2022/06/26 02:18:09;;;;;;;0.00;0.00;;;12.90;64.00;;;;;;5048369;28;20036;-78
2022/06/26 02:20:34;;;;;;;0.00;0.00;;;13.00;64.00;;;;;;5049935;28;20026;-80
2022/06/26 02:23:00;;;;;;;0.00;0.00;;;13.00;64.00;;;;;;5050277;28;20029;-79
2022/06/26 02:25:26;;;;;;;0.00;0.00;;;13.00;64.00;;;;;;5049617;28;20029;-77
2022/06/26 02:27:52;;;;;;;0.00;0.00;;;13.00;64.00;;;;;;5048445;28;20033;-78
2022/06/26 02:30:18;;;;;;;0.00;0.00;;;13.00;64.00;;;;;;5048411;28;20471;-76
2022/06/26 02:32:44;;;;;;;0.00;0.00;;;13.00;64.10;;;;;;5048415;28;20490;-78
2022/06/26 02:35:10;;;;;;;0.00;0.00;;;13.10;64.10;;;;;;5047893;28;20087;-78
2022/06/26 02:37:36;;;;;;;0.00;0.00;;;13.10;64.00;;;;;;5049859;28;20029;-75
2022/06/26 02:40:03;;;;;;;0.00;0.00;;;13.10;64.00;;;;;;5049170;28;20050;-79
2022/06/26 02:42:29;;;;;;;0.00;0.00;;;13.10;64.00;;;;;;5047864;28;20025;-77
2022/06/26 02:44:55;;;;;;;0.00;0.00;;;13.10;64.00;;;;;;5047951;28;20518;-79
2022/06/26 02:47:20;;;;;;;0.00;0.00;;;13.10;64.00;;;;;;5048206;28;20506;-78
2022/06/26 02:49:46;;;;;;;0.00;0.00;;;13.10;64.00;;;;;;5049010;28;20070;-76
2022/06/26 02:52:12;;;;;;;0.00;0.00;;;13.10;64.10;;;;;;5031219;28;20354;-80
2022/06/26 02:54:37;;;;;;;0.00;0.00;;;13.10;64.10;;;;;;5048181;28;20100;-78
2022/06/26 02:57:03;;;;;;;0.00;0.00;;;13.10;64.10;;;;;;5047650;28;20025;-77
2022/06/26 02:59:29;;;;;;;0.00;0.00;;;13.10;64.00;;;;;;5047345;28;20032;-77
2022/06/26 03:01:57;;;;;;;0.00;0.00;;;13.10;64.00;;;;;;5030742;28;20468;-77
2022/06/26 03:04:23;;;;;;;0.00;0.00;;;13.10;64.10;;;;;;5047605;28;20039;-78
2022/06/26 03:06:49;;;;;;;0.00;0.00;;;13.10;64.10;;;;;;5030547;28;20032;-78
2022/06/26 03:09:15;;;;;;;0.00;0.00;;;13.10;64.10;;;;;;5047261;28;20487;-77
2022/06/26 03:11:41;;;;;;;0.00;0.00;;;13.10;64.10;;;;;;5030726;28;20056;-77
2022/06/26 03:14:07;;;;;;;0.00;0.00;;;13.10;64.10;;;;;;5048309;28;20064;-78
2022/06/26 03:16:34;;;;;;;0.00;0.00;;;13.10;64.10;;;;;;5047266;28;20025;-76
2022/06/26 03:18:59;;;;;;;;;;;13.10;64.10;;;;;;5031396;28;20490;-77
2022/06/26 03:21:26;;;;;;;0.00;0.00;;;13.10;64.00;;;;;;5048322;28;19948;-76
2022/06/26 03:24:01;;;;;;;0.00;0.00;;;13.10;64.00;;;;;;5048300;28;20103;-77
2022/06/26 03:26:28;;;;;;;0.00;0.00;;;13.10;64.00;;;;;;5031840;28;20036;-78
2022/06/26 03:28:54;;;;;;;0.00;0.00;;;13.20;64.00;;;;;;5046966;28;20074;-77
2022/06/26 03:31:19;;;;;;;0.00;0.00;;;13.20;64.00;;;;;;5046881;28;20033;-78
2022/06/26 03:33:45;;;;;;;0.00;0.00;;;13.10;63.90;;;;;;5046767;28;20045;-77
2022/06/26 03:36:11;;;;;;;0.00;0.00;;;13.20;64.00;;;;;;5030539;28;20637;-77
2022/06/26 03:38:38;;;;;;;0.00;0.00;;;13.10;64.00;;;;;;5046676;28;20025;-78
2022/06/26 03:41:04;;;;;;;0.00;0.00;;;13.20;64.10;;;;;;5046827;28;20037;-78
2022/06/26 03:43:29;;;;;;;;;;;13.10;64.00;;;;;;5047169;28;20071;-76
2022/06/26 03:45:55;;;;;;;0.00;0.00;;;13.10;64.10;;;;;;5048278;28;19920;-80
2022/06/26 03:48:21;;;;;;;0.00;0.00;;;13.10;64.10;;;;;;5048169;28;20028;-77
2022/06/26 03:50:47;;;;;;;0.00;0.00;;;13.10;64.10;;;;;;5047856;28;20031;-77
2022/06/26 03:53:12;;;;;;;0.00;0.00;;;13.00;64.10;;;;;;5047800;28;20029;-76
2022/06/26 03:55:38;;;;;;;0.00;0.00;;;13.00;64.10;;;;;;5047133;28;20061;-76
2022/06/26 03:58:04;;;;;;;0.00;0.00;;;13.00;64.10;;;;;;5046852;28;20041;-77
2022/06/26 04:00:30;;;;;;;0.00;0.00;;;13.00;64.10;;;;;;5030091;28;20025;-77
2022/06/26 04:02:56;;;;;;;0.00;0.00;;;13.00;64.10;;;;;;5047857;28;20025;-77
2022/06/26 04:05:22;;;;;;;0.00;0.00;;;13.00;64.10;;;;;;5046593;28;20041;-78
2022/06/26 04:07:48;;;;;;;0.00;0.00;;;13.00;64.10;;;;;;5045667;28;20029;-78
2022/06/26 04:10:13;;;;;;;0.00;0.00;;;13.00;64.10;;;;;;5029967;28;20031;-76
2022/06/26 04:12:39;;;;;;;0.00;0.00;;;13.00;64.20;;;;;;5048217;28;20029;-77
2022/06/26 04:15:06;;;;;;;0.00;0.00;;;13.00;64.20;;;;;;5047753;28;20036;-77
2022/06/26 04:17:32;;;;;;;0.00;0.00;;;13.00;64.20;;;;;;5047614;28;20032;-78
2022/06/26 04:19:57;;;;;;;0.00;0.00;;;13.00;64.20;;;;;;5047568;28;20035;-77
2022/06/26 04:22:23;;;;;;;0.00;0.00;;;13.00;64.30;;;;;;5029757;28;20441;-78
2022/06/26 04:24:49;;;;;;;0.00;0.00;;;13.00;64.20;;;;;;5029728;28;20036;-77
2022/06/26 04:27:15;;;;;;;0.00;0.00;;;13.10;64.30;;;;;;5047579;28;20044;-77
2022/06/26 04:29:40;;;;;;;0.00;0.00;;;13.10;64.20;;;;;;5046396;28;20033;-77
2022/06/26 04:32:07;;;;;;;0.00;0.00;;;13.10;64.20;;;;;;5046077;28;20025;-78
2022/06/26 04:34:32;;;;;;;0.00;0.00;;;13.10;64.20;;;;;;5047361;28;20052;-77
2022/06/26 04:36:58;;;;;;;0.00;0.00;;;13.10;64.30;;;;;;5047474;28;20056;-77
2022/06/26 04:39:24;;;;;;;0.00;0.00;;;13.10;64.30;;;;;;5029522;28;20488;-77
2022/06/26 04:41:50;;;;;;;0.00;0.00;;;13.00;64.30;;;;;;5047462;28;20132;-77
2022/06/26 04:44:17;;;;;;;0.00;0.00;;;13.10;64.30;;;;;;5046395;28;20032;-78
2022/06/26 04:46:46;;;;;;;0.00;0.00;;;13.00;64.30;;;;;;5046183;28;20086;-78
2022/06/26 04:49:13;;;;;;;0.00;0.00;;;13.00;64.30;;;;;;5047470;28;20371;-77
2022/06/26 04:51:39;;;;;;;0.00;0.00;;;13.00;64.40;;;;;;5045875;28;20430;-79
2022/06/26 04:54:08;;;;;;;0.00;0.00;;;13.00;64.40;;;;;;5029426;28;20052;-76
2022/06/26 04:56:35;;;;;;;0.00;0.00;;;13.00;64.40;;;;;;5045962;28;20033;-77
2022/06/26 04:59:01;;;;;;;0.00;0.00;;;12.90;64.40;;;;;;5047145;28;20037;-78
2022/06/26 05:01:27;;;;;;;0.00;0.00;;;12.90;64.40;;;;;;5047139;28;20060;-78
2022/06/26 05:03:53;;;;;;;0.00;0.00;;;12.90;64.40;;;;;;5047284;28;20056;-79
2022/06/26 05:06:19;;;;;;;0.00;0.00;;;12.90;64.40;;;;;;5047155;28;20040;-77
2022/06/26 05:08:45;;;;;;;0.00;0.00;;;12.90;64.50;;;;;;5047234;28;20486;-78
2022/06/26 05:11:10;;;;;;;0.00;0.00;;;12.90;64.50;;;;;;5047036;28;20065;-78
2022/06/26 05:13:36;;;;;;;0.00;0.00;;;12.90;64.40;;;;;;5029239;28;20053;-77
2022/06/26 05:16:02;;;;;;;0.00;0.00;;;13.00;64.50;;;;;;5045636;28;20083;-77
2022/06/26 05:18:28;;;;;;;0.00;0.00;;;13.00;64.40;;;;;;5030876;28;20113;-78
2022/06/26 05:20:54;;;;;;;0.00;0.00;;;13.00;64.90;;;;;;5049265;28;20037;-78
2022/06/26 05:23:20;;;;;;;0.00;0.00;;;13.00;65.00;;;;;;5049241;28;20024;-77
2022/06/26 05:25:46;;;;;;;0.00;0.00;;;13.00;64.40;;;;;;5032982;28;20036;-77
2022/06/26 05:28:12;;;;;;;0.00;0.00;;;13.00;64.40;;;;;;5050878;28;20025;-78
2022/06/26 05:30:38;;;;;;;0.00;0.00;;;13.00;64.50;;;;;;5049510;28;20025;-78
2022/06/26 05:33:04;;;;;;;0.00;0.00;;;13.00;64.40;;;;;;5049266;28;20025;-77
2022/06/26 05:35:30;;;;;;;0.00;0.00;;;13.00;64.40;;;;;;5049081;28;20060;-76
2022/06/26 05:37:56;;;;;;;0.00;0.00;;;13.10;64.50;;;;;;5050730;28;20044;-77
2022/06/26 05:40:22;;;;;;;0.00;0.00;;;13.00;64.40;;;;;;5050328;28;20029;-77
2022/06/26 05:42:47;;;;;;;0.00;0.00;;;13.00;64.50;;;;;;5049213;28;20402;-77
2022/06/26 05:45:13;;;;;;;0.00;0.00;;;13.00;64.50;;;;;;5050289;28;20025;-76
2022/06/26 05:47:39;;;;;;;0.00;0.00;;;13.00;64.50;;;;;;5049103;28;20112;-78
2022/06/26 05:50:06;;;;;;;0.00;0.00;;;13.00;64.60;;;;;;5048516;28;20029;-67
2022/06/26 05:52:32;;;;;;;0.00;0.00;;;13.00;64.60;;;;;;5049932;28;20410;-77
2022/06/26 05:54:58;;;;;;;;;;;13.10;64.60;;;;;;5050520;28;20026;-78
2022/06/26 05:57:25;;;;;;;0.00;0.00;;;13.10;64.50;;;;;;5050031;28;19909;-76
2022/06/26 05:59:50;;;;;;;0.00;0.00;;;13.20;64.60;;;;;;5032463;28;20029;-76
2022/06/26 06:02:16;;;;;;;0.00;0.00;;;13.20;64.60;;;;;;5032015;28;20033;-76
2022/06/26 06:04:42;;;;;;;0.00;0.00;;;13.30;64.60;;;;;;5049942;28;20116;-77
2022/06/26 06:07:08;;;;;;;0.00;0.00;;;13.30;64.50;;;;;;5049812;28;20033;-78
2022/06/26 06:09:34;;;;;;;0.00;0.00;;;13.40;64.60;;;;;;5048539;28;20468;-77
2022/06/26 06:12:00;;;;;;;0.00;0.00;;;13.50;64.50;;;;;;5048532;28;20025;-77
2022/06/26 06:14:26;;;;;;;0.00;0.00;;;13.50;64.50;;;;;;5048456;28;20369;-78
2022/06/26 06:16:51;;;;;;;0.00;0.00;;;13.50;64.40;;;;;;5048482;28;20100;-77
2022/06/26 06:19:17;;;;;;;0.00;0.00;;;13.50;64.50;;;;;;5031904;28;20536;-76
2022/06/26 06:21:42;;;;;;;0.00;0.00;;;13.50;64.60;;;;;;5048422;28;20033;-77
2022/06/26 06:24:08;;;;;;;0.00;0.00;;;13.50;64.60;;;;;;5049515;28;20534;-78
2022/06/26 06:26:34;;;;;;;0.00;0.00;;;13.60;64.60;;;;;;5031515;28;20059;-78
2022/06/26 06:29:00;;;;;;;0.00;0.00;;;13.70;64.50;;;;;;5030935;28;20472;-77
2022/06/26 06:31:26;;;;;;;0.00;0.00;;;13.80;64.50;;;;;;5031143;28;20039;-77
2022/06/26 06:33:51;;;;;;;0.00;0.00;;;13.90;64.60;;;;;;5048006;28;20409;-77
2022/06/26 06:36:17;;;;;;;0.00;0.00;;;13.90;64.50;;;;;;5014713;28;20055;-79
2022/06/26 06:38:43;;;;;;;0.00;0.00;;;13.90;64.50;;;;;;5031388;28;20075;-79
2022/06/26 06:41:08;;;;;;;0.00;0.00;;;13.90;64.40;;;;;;5049074;28;20048;-77
2022/06/26 06:43:34;;;;;;;0.00;0.00;;;13.90;64.40;;;;;;5049108;28;20492;-77
2022/06/26 06:46:00;;;;;;;0.00;0.00;;;14.00;64.50;;;;;;5047693;28;20144;-77
2022/06/26 06:48:26;;;;;;;0.00;0.00;;;14.00;64.50;;;;;;5031218;28;20055;-78
2022/06/26 06:50:52;;;;;;;0.00;0.00;;;14.10;64.60;;;;;;5048874;28;20517;-76
2022/06/26 06:53:19;;;;;;;0.00;0.00;;;14.10;64.60;;;;;;5030831;28;20021;-77
2022/06/26 06:55:45;;;;;;;0.00;0.00;;;14.20;64.60;;;;;;5048478;28;20025;-73
2022/06/26 06:58:10;;;;;;;0.00;0.00;;;14.20;64.60;;;;;;5049043;28;20056;-79
2022/06/26 07:00:36;;;;;;;0.00;0.00;;;14.20;64.60;;;;;;5047511;28;20033;-77
2022/06/26 07:03:04;;;;;;;0.00;0.00;;;14.30;64.60;;;;;;5048747;28;20509;-77
2022/06/26 07:05:30;;;;;;;0.00;0.00;;;14.40;64.70;;;;;;5049025;28;20036;-78
2022/06/26 07:07:56;;;;;;;;;;;14.50;64.70;;;;;;5047755;28;20095;-78
2022/06/26 07:10:22;;;;;;;0.00;0.00;;;14.60;64.80;;;;;;5048517;28;19909;-78
2022/06/26 07:12:53;;;;;;;0.00;0.00;;;14.80;64.60;;;;;;5047450;28;20100;-79
2022/06/26 07:15:19;;;;;;;0.00;0.00;;;15.00;64.60;;;;;;5048652;28;20052;-77
2022/06/26 07:17:45;;;;;;;0.00;0.00;;;15.20;64.40;;;;;;5048808;28;20390;-76
2022/06/26 07:20:10;;;;;;;0.00;0.00;;;15.20;64.30;;;;;;5030278;28;20029;-78
2022/06/26 07:22:36;;;;;;;0.00;0.00;;;15.30;64.40;;;;;;5047086;28;20584;-78
2022/06/26 07:25:03;;;;;;;0.00;0.00;;;15.30;64.30;;;;;;5047162;28;20468;-79
2022/06/26 07:27:28;;;;;;;0.00;0.00;;;15.30;64.30;;;;;;5046788;28;20040;-78
2022/06/26 07:29:54;;;;;;;0.00;0.00;;;15.30;64.30;;;;;;5030505;28;20399;-78
2022/06/26 07:32:20;;;;;;;0.00;0.00;;;15.20;64.30;;;;;;5047826;28;20027;-78
2022/06/26 07:34:45;;;;;;;0.00;0.00;;;15.20;64.50;;;;;;5030101;28;20053;-77
2022/06/26 07:37:11;;;;;;;0.00;0.00;;;15.20;64.50;;;;;;5048154;28;20040;-78
2022/06/26 07:39:37;;;;;;;0.00;0.00;;;15.20;64.50;;;;;;5048214;28;20049;-77
2022/06/26 07:42:04;;;;;;;;;;;15.10;64.60;;;;;;5048101;28;20064;-78
2022/06/26 07:44:30;;;;;;;0.00;0.00;;;15.10;64.60;;;;;;5048136;28;19913;-77
2022/06/26 07:46:57;;;;;;;0.00;0.00;;;15.00;64.60;;;;;;5046881;28;20056;-76
2022/06/26 07:49:23;;;;;;;0.00;0.00;;;15.00;64.80;;;;;;5030410;28;20059;-77
2022/06/26 07:51:49;;;;;;;0.00;0.00;;;15.00;64.80;;;;;;5047854;28;20032;-77
2022/06/26 07:54:15;;;;;;;0.00;0.00;;;15.00;64.80;;;;;;5046584;28;20059;-78
2022/06/26 07:56:41;;;;;;;0.00;0.00;;;15.10;65.00;;;;;;5046172;28;20072;-78
2022/06/26 07:59:07;;;;;;;0.00;0.00;;;15.40;65.00;;;;;;5047363;28;20435;-77
2022/06/26 08:01:33;;;;;;;0.00;0.00;;;15.90;65.20;;;;;;5029491;28;20063;-76
2022/06/26 08:03:59;;;;;;;0.00;0.00;;;17.30;65.90;;;;;;5046137;28;20029;-79
2022/06/26 08:06:26;;;;;;;0.00;0.00;;;19.20;64.70;;;;;;5047332;28;20040;-79
2022/06/26 08:08:51;;;;;;;0.00;0.00;;;20.10;62.80;;;;;;5047616;28;20013;-80
2022/06/26 08:11:18;;;;;;;0.00;0.00;;;20.60;62.40;;;;;;5046202;28;20029;-78
2022/06/26 08:13:44;;;;;;;0.00;0.00;;;20.90;62.30;;;;;;5029663;28;20037;-78
2022/06/26 08:16:10;;;;;;;0.00;0.00;;;21.00;62.20;;;;;;5047401;28;20029;-78
2022/06/26 08:18:36;;;;;;;0.00;0.00;;;20.80;62.10;;;;;;5013152;28;20047;-80
2022/06/26 08:22:00;;;;;;;0.00;0.00;;;20.40;62.20;;;;;;5045902;28;20435;-77
2022/06/26 08:23:49;;;;;;;0.00;0.00;;;19.90;62.50;;;;;;5047478;28;20538;-77
2022/06/26 08:26:14;;;;;;;0.00;0.00;;;19.40;63.00;;;;;;5046013;28;20123;-79
2022/06/26 08:28:40;;;;;;;;;;;19.30;63.90;;;;;;5046757;28;20029;-77
2022/06/26 08:31:06;;;;;;;0.00;0.00;;;19.80;63.90;;;;;;5048502;28;19904;-79
2022/06/26 08:33:32;;;;;;;;;;;20.10;63.50;;;;;;5047867;28;20049;-78
2022/06/26 08:35:57;;;;;;;0.00;0.00;;;20.20;63.20;;;;;;5029184;28;20278;-77
2022/06/26 08:38:23;;;;;;;0.00;0.00;;;20.20;63.20;;;;;;5028985;28;20158;-78
2022/06/26 08:40:51;;;;;;;0.00;0.00;;;20.10;63.20;;;;;;5045834;28;20116;-79
2022/06/26 08:43:22;;;;;;;0.00;0.00;;;20.10;63.80;;;;;;5046206;28;20021;-78
2022/06/26 08:45:53;;;;;;;0.00;0.00;;;20.20;63.40;;;;;;5046376;28;20017;-78
2022/06/26 08:48:20;;;;;;;0.00;0.00;;;20.10;63.40;;;;;;5046008;28;20028;-77
2022/06/26 08:50:46;;;;;;;0.00;0.00;;;19.90;63.60;;;;;;5047787;28;20033;-80
2022/06/26 08:53:15;;;;;;;0.00;0.00;;;19.70;63.70;;;;;;5049367;28;20421;-78
2022/06/26 08:55:41;;;;;;;0.00;0.00;;;19.60;63.90;;;;;;5051649;28;20021;-77
2022/06/26 08:58:07;;;;;;;0.00;0.00;;;19.50;63.80;;;;;;5034761;28;20079;-78
2022/06/26 09:00:33;;;;;;;0.00;0.00;;;19.50;64.00;;;;;;5050027;28;20037;-77
2022/06/26 09:02:59;;;;;;;0.00;0.00;;;19.50;64.00;;;;;;5017301;28;20056;-78
2022/06/26 09:05:24;;;;;;;0.00;0.00;;;19.40;64.10;;;;;;5050462;28;20033;-78
2022/06/26 09:07:54;;;;;;;;;;;19.40;64.00;;;;;;5051790;28;20362;-78
2022/06/26 09:10:20;;;;;;;0.00;0.00;;;19.50;64.60;;;;;;5051186;28;19909;-80
2022/06/26 09:12:55;;;;;;;0.00;0.00;;;19.60;64.00;;;;;;5051393;28;20426;-78
2022/06/26 09:15:23;;;;;;;0.00;0.00;;;19.60;64.10;;;;;;5051981;28;20104;-79
2022/06/26 09:18:01;;;;;;;0.00;0.00;;;19.80;64.20;;;;;;5050106;28;20025;-81
2022/06/26 09:20:29;;;;;;;0.00;0.00;;;19.90;64.70;;;;;;5051939;28;20056;-77
2022/06/26 09:22:56;;;;;;;0.00;0.00;;;20.00;64.00;;;;;;5050957;28;20033;-81
2022/06/26 09:25:39;;;;;;;0.00;0.00;;;19.90;63.80;;;;;;5050913;28;20394;-77
2022/06/26 09:28:16;;;;;;;0.00;0.00;;;19.90;64.10;;;;;;5050742;28;20025;-77
2022/06/26 09:30:54;;;;;;;0.00;0.00;;;20.30;64.50;;;;;;5050232;28;20067;-78
2022/06/26 09:33:25;;;;;;;0.00;0.00;;;20.50;63.90;;;;;;5049777;28;20032;-78
2022/06/26 09:35:52;;;;;;;0.00;0.00;;;20.30;63.50;;;;;;5050539;28;20060;-78
2022/06/26 09:38:19;;;;;;;1.30;0.63;;;20.00;63.50;;;;;;5049145;28;20025;-79
2022/06/26 09:40:50;;;;;;;0.00;0.00;;;19.70;63.80;;;;;;5049865;28;20077;-77
2022/06/26 09:43:57;;;;;;;0.00;0.00;;;19.70;64.40;;;;;;5051580;28;20070;-77
2022/06/26 09:46:31;;;;;;;0.00;0.00;;;19.90;64.80;;;;;;5016752;28;20037;-78
2022/06/26 09:48:59;;;;;;;0.00;0.00;;;21.00;66.10;;;;;;5052123;28;20040;-78
2022/06/26 09:51:25;;;;;;;0.00;0.00;;;21.90;64.50;;;;;;5051830;28;20017;-81
2022/06/26 09:53:54;;;;;;;0.00;0.00;;;22.20;63.70;;;;;;5050092;28;20128;-77
2022/06/26 09:56:20;;;;;;;0.00;0.00;;;22.10;63.20;;;;;;5050248;28;20112;-79
2022/06/26 09:58:45;;;;;;;;;;;21.80;63.10;;;;;;5050672;28;20053;-79
2022/06/26 10:06:48;;;;;;;0.00;0.00;;;20.80;63.60;;;;;;5050469;28;20086;-77
2022/06/26 10:09:17;;;;;;;0.00;0.00;;;20.90;64.70;;;;;;5031572;28;20174;-79
2022/06/26 10:11:45;;;;;;;0.00;0.00;;;21.60;65.30;;;;;;5049853;28;20066;-80
2022/06/26 10:14:22;;;;;;;0.00;0.00;;;22.60;65.00;;;;;;5048304;28;20037;-79
2022/06/26 10:16:56;;;;;;;0.00;0.00;;;22.80;63.50;;;;;;5048179;28;20033;-77
2022/06/26 10:19:40;;;;;;;0.00;0.00;;;22.10;62.70;;;;;;5048165;28;20025;-76
2022/06/26 10:22:07;;;;;;;0.00;0.00;;;21.30;62.60;;;;;;5047751;28;20038;-79
2022/06/26 10:24:32;;;;;;;0.00;0.00;;;20.50;63.30;;;;;;5047707;28;20481;-77
2022/06/26 10:27:00;;;;;;;;;;;20.00;63.80;;;;;;5049486;28;20074;-79
2022/06/26 10:29:52;;;;;;;;;;;20.30;65.60;;;;;;5047935;28;20292;-79
2022/06/26 10:32:24;;;;;;;0.00;0.00;;;21.10;66.00;;;;;;5043364;28;19905;-78
2022/06/26 10:34:56;;;;;;;0.00;0.00;;;22.00;64.80;;;;;;5047159;28;20316;-79
2022/06/26 10:37:22;;;;;;;0.00;0.00;;;22.00;63.80;;;;;;5048016;28;20497;-79
2022/06/26 10:39:52;;;;;;;;;;;21.80;63.40;;;;;;5048561;28;20032;-77
2022/06/26 10:45:20;;;;;;;0.00;0.00;;;22.20;65.10;;;;;;5050602;28;20052;-80
2022/06/26 10:47:49;;;;;;;0.00;0.00;;;23.10;64.90;;;;;;5048483;28;20053;-78
2022/06/26 10:50:31;;;;;;;0.00;0.00;;;23.90;64.90;;;;;;5047894;28;20075;-77
2022/06/26 10:53:16;;;;;;;0.00;0.00;;;24.10;63.60;;;;;;5048284;28;20021;-78
2022/06/26 10:55:48;;;;;;;0.00;0.00;;;23.50;63.20;;;;;;5048868;28;20017;-78
2022/06/26 10:58:31;;;;;;;0.00;0.00;;;23.30;63.70;;;;;;5048535;28;20078;-78
2022/06/26 11:01:00;;;;;;;0.00;0.00;;;23.30;64.00;;;;;;5049198;28;20029;-78
2022/06/26 11:03:28;;;;;;;0.00;0.00;;;23.10;63.50;;;;;;5048472;28;20494;-79
2022/06/26 11:05:59;;;;;;;0.00;0.00;;;22.80;63.60;;;;;;5048332;28;20040;-77
2022/06/26 11:08:32;;;;;;;0.00;0.00;;;22.30;63.50;;;;;;5048934;28;20327;-78
2022/06/26 11:11:06;;;;;;;0.00;0.00;;;21.80;63.50;;;;;;5049174;28;20025;-79
2022/06/26 11:13:35;;;;;;;0.00;0.00;;;21.30;63.80;;;;;;5048222;28;20031;-79
2022/06/26 11:16:01;;;;;;;0.00;0.00;;;21.10;64.20;;;;;;5046794;28;20024;-78
2022/06/26 11:18:33;;;;;;;0.00;0.00;;;20.80;64.10;;;;;;5030601;28;20037;-78
2022/06/26 11:21:01;;;;;;;0.00;0.00;;;20.40;63.90;;;;;;5047059;28;20395;-77
2022/06/26 11:23:35;;;;;;;0.00;0.00;;;20.00;64.00;;;;;;5047345;28;20514;-78
2022/06/26 11:26:07;;;;;;;0.00;0.00;;;19.70;65.00;;;;;;5047062;28;20086;-77
2022/06/26 11:28:34;;;;;;;0.00;0.00;;;20.50;66.70;;;;;;5048400;28;20021;-79
2022/06/26 11:31:02;;;;;;;0.00;0.00;;;21.90;66.60;;;;;;5048084;28;20021;-79
2022/06/26 11:33:33;;;;;;;0.00;0.00;;;23.00;66.00;;;;;;5047949;28;20102;-80
2022/06/26 11:36:13;;;;;;;0.00;0.00;;;23.70;64.80;;;;;;5047819;28;20471;-78
2022/06/26 11:38:46;;;;;;;0.00;0.00;;;23.60;64.00;;;;;;5047454;28;20060;-80
2022/06/26 11:41:12;;;;;;;0.00;0.00;;;23.60;64.10;;;;;;5047285;28;20383;-80
2022/06/26 11:43:49;;;;;;;0.00;0.00;;;23.30;63.70;;;;;;5046785;28;20017;-81
2022/06/26 11:46:16;;;;;;;0.00;0.00;;;22.90;63.70;;;;;;5047722;28;20104;-77
2022/06/26 11:48:42;;;;;;;0.00;0.00;;;22.60;63.70;;;;;;5046226;28;20484;-78
2022/06/26 11:51:12;;;;;;;0.00;0.00;;;22.20;63.50;;;;;;5046375;28;20414;-80
2022/06/26 11:53:39;;;;;;;0.00;0.00;;;21.40;63.20;;;;;;5047766;28;20025;-77
2022/06/26 11:56:05;;;;;;;0.00;0.00;;;20.90;64.00;;;;;;5045712;28;20052;-77
2022/06/26 11:58:34;;;;;;;0.00;0.00;;;20.90;65.00;;;;;;5046389;28;20476;-76
2022/06/26 12:01:08;;;;;;;0.00;0.00;;;21.70;66.20;;;;;;5046008;28;20031;-78
2022/06/26 12:03:55;;;;;;;0.00;0.00;;;22.30;65.30;;;;;;5046856;28;20549;-77
2022/06/26 12:06:36;;;;;;;0.00;0.00;;;22.50;64.70;;;;;;5047702;28;20075;-77
2022/06/26 12:09:20;;;;;;;0.00;0.00;;;22.90;65.30;;;;;;5046554;28;20110;-79
2022/06/26 12:11:49;;;;;;;0.00;0.00;;;23.50;65.40;;;;;;5046471;28;20036;-79
2022/06/26 12:14:17;;;;;;;0.00;0.00;;;24.10;65.40;;;;;;5046932;28;20510;-77
2022/06/26 12:16:46;;;;;;;0.00;0.00;;;24.80;65.30;;;;;;5046902;28;20046;-79
2022/06/26 12:19:12;;;;;;;0.00;0.00;;;25.10;65.00;;;;;;5045568;28;20037;-79
2022/06/26 12:21:38;;;;;;;0.00;0.00;;;25.50;65.10;;;;;;5029639;28;20024;-78
2022/06/26 12:24:10;;;;;;;0.00;0.00;;;25.80;64.70;;;;;;5030018;28;20067;-78
2022/06/26 12:26:40;;;;;;;0.00;0.00;;;25.90;64.80;;;;;;5047802;28;20030;-79
2022/06/26 12:29:11;;;;;;;0.00;0.00;;;26.10;65.40;;;;;;5049686;28;20349;-79
2022/06/26 12:31:37;;;;;;;0.00;0.00;;;25.90;64.50;;;;;;5051704;28;20024;-78
2022/06/26 12:34:04;;;;;;;0.00;0.00;;;25.90;65.00;;;;;;5051309;28;20071;-77
2022/06/26 12:36:30;;;;;;;0.00;0.00;;;26.10;65.20;;;;;;5033873;28;20039;-78
2022/06/26 12:38:56;;;;;;;0.00;0.00;;;25.80;64.00;;;;;;5049681;28;20540;-78
2022/06/26 12:41:22;;;;;;;0.00;0.00;;;25.10;63.70;;;;;;5049821;28;20052;-75
2022/06/26 12:44:01;;;;;;;0.00;0.00;;;24.50;63.90;;;;;;5051370;28;20102;-76
2022/06/26 12:46:27;;;;;;;0.00;0.00;;;24.00;64.20;;;;;;5050420;28;20033;-77
2022/06/26 12:48:54;;;;;;;0.00;0.00;;;23.70;64.60;;;;;;5050076;28;20029;-78
2022/06/26 12:51:21;;;;;;;0.00;0.00;;;23.90;65.50;;;;;;5051149;28;20104;-80
2022/06/26 12:53:48;;;;;;;0.00;0.00;;;24.40;65.40;;;;;;5049469;28;20471;-79
2022/06/26 12:56:14;;;;;;;0.00;0.00;;;24.70;65.40;;;;;;5050819;28;20150;-77
2022/06/26 12:58:40;;;;;;;0.00;0.00;;;25.10;65.60;;;;;;5049287;28;20029;-79
2022/06/26 13:01:06;;;;;;;0.00;0.00;;;25.40;65.50;;;;;;5048672;28;20069;-77
2022/06/26 13:03:32;;;;;;;0.00;0.00;;;25.60;65.30;;;;;;5050775;28;20037;-82
2022/06/26 13:05:58;;;;;;;0.00;0.00;;;25.50;64.90;;;;;;5050713;28;20100;-79